Date,TemperatureHighF,TemperatureAvgF,TemperatureLowF,DewpointHighF,DewpointAvgF,DewpointLowF,HumidityHigh,HumidityAvg,HumidityLow,PressureMaxIn,PressureMinIn,WindSpeedMaxMPH,WindSpeedAvgMPH,GustSpeedMaxMPH,PrecipitationSumIn
2012-1-1,49.2,46.0,42.8,43.3,40.4,37.2,84,81,73,29.36,29.24,44,15,44,0.02
2012-1-2,42.0,39.9,38.0,35.6,34.4,33.1,88,81,74,29.43,29.33,36,20,36,0.02
2012-1-3,53.5,42.0,37.7,47.2,36.7,33.6,91,81,65,29.50,28.43,71,24,71,3.20
2012-1-4,47.8,41.9,38.3,46.2,38.0,33.5,94,86,79,29.68,28.98,46,22,46,0.11
2012-1-5,45.0,41.8,39.0,34.9,32.9,31.0,78,71,59,30.03,29.45,26,10,26,0.11
2012-1-6,50.4,43.4,37.2,47.1,38.6,31.6,90,83,71,30.17,29.78,37,14,37,0.00
2012-1-7,46.4,44.7,42.8,39.7,37.8,35.3,81,77,71,30.08,29.80,32,16,32,0.00
2012-1-8,51.2,47.6,44.1,48.1,43.3,37.2,90,85,74,30.18,30.08,29,14,29,0.00
2012-1-9,51.2,49.0,48.4,51.0,45.7,43.9,100,88,83,30.09,30.01,33,21,33,0.00
2012-1-10,49.9,48.9,48.4,45.3,43.8,42.1,86,83,78,30.21,30.18,26,12,31,0.00
2012-1-11,52.1,49.0,45.6,47.4,44.6,40.6,90,85,78,30.33,29.90,26,11,43,0.00
2012-1-12,52.3,45.3,38.4,47.6,38.4,33.2,89,77,61,30.42,29.81,31,10,50,0.02
2012-1-13,42.0,37.3,32.7,36.0,32.6,30.1,92,83,74,30.56,30.41,6,2,10,0.00
2012-1-14,41.5,38.0,32.9,38.1,34.4,29.6,91,87,78,30.45,30.28,9,1,9,0.00
2012-1-15,38.2,32.8,29.7,34.4,29.9,27.2,94,89,85,30.28,30.24,5,1,5,0.00
2012-1-16,37.2,31.8,27.2,32.7,28.5,24.5,94,88,77,30.28,30.21,13,2,13,0.01
2012-1-17,47.2,43.9,41.3,42.7,39.4,36.7,87,84,81,30.22,29.95,28,8,28,0.01
2012-1-18,52.5,46.7,42.5,49.1,41.1,36.5,90,81,69,30.01,29.81,36,19,36,0.00
2012-1-19,43.4,39.3,35.4,38.5,34.8,32.2,93,84,69,29.90,29.74,33,16,33,0.22
2012-1-20,49.8,41.4,36.1,47.0,37.1,31.6,91,85,75,29.93,29.57,34,13,34,0.02
2012-1-21,50.5,44.5,41.5,47.0,37.9,34.9,90,78,71,29.67,29.47,42,21,42,0.00
2012-1-22,45.4,42.4,39.8,41.6,38.0,35.0,92,85,76,29.87,29.44,30,14,30,0.08
2012-1-23,43.7,39.4,37.7,35.9,34.1,32.1,85,81,69,30.03,29.86,22,12,22,0.00
2012-1-24,41.9,40.1,37.2,40.8,37.4,33.6,96,90,84,30.02,29.83,17,3,17,0.03
2012-1-25,51.3,48.7,40.7,47.2,44.2,38.0,97,85,76,29.83,29.40,44,12,44,0.12
2012-1-26,41.6,38.0,34.8,38.3,34.4,30.8,93,87,81,29.65,29.44,20,7,20,0.05
2012-1-27,41.0,36.9,33.1,36.6,33.5,29.9,92,87,81,30.28,29.65,20,6,20,0.00
2012-1-28,40.4,35.1,31.6,35.3,31.4,28.4,93,86,77,30.49,30.28,8,2,8,0.00
2012-1-29,41.0,36.6,32.2,35.7,33.2,30.4,93,87,78,30.48,30.41,10,2,10,0.00
2012-1-30,38.2,36.1,33.2,34.0,32.0,30.0,89,85,75,30.41,30.33,10,3,10,0.00
2012-1-31,39.4,38.1,37.3,31.8,29.9,27.7,79,72,63,30.62,30.33,20,7,20,0.00
2012-2-1,41.7,36.8,31.4,29.8,27.0,24.0,75,68,58,30.72,30.62,14,4,14,0.00
2012-2-2,36.7,31.0,27.2,27.0,24.3,22.3,85,76,61,30.72,30.65,13,2,13,0.00
2012-2-3,39.1,34.7,32.2,30.9,27.4,24.3,87,75,66,30.66,30.57,18,6,18,0.00
2012-2-4,41.7,38.5,32.0,37.0,34.3,29.3,91,85,76,30.57,30.06,36,10,36,0.02
2012-2-5,45.0,40.5,37.7,39.8,36.9,34.3,93,87,80,30.39,30.15,20,7,20,0.00
2012-2-6,44.6,38.6,34.2,39.2,35.3,31.4,95,88,74,30.66,30.39,6,2,6,0.01
2012-2-7,43.2,35.6,29.6,36.2,31.4,27.3,92,85,71,30.76,30.66,9,2,9,0.00
2012-2-8,36.1,34.5,30.8,31.1,27.2,22.2,86,75,57,30.77,30.63,14,3,14,0.01
2012-2-9,42.7,39.4,34.7,41.0,37.1,31.1,96,91,86,30.63,30.54,10,3,10,0.09
2012-2-10,41.2,40.0,38.4,39.9,37.5,35.4,96,91,86,30.55,30.49,5,2,5,0.00
2012-2-11,42.8,40.1,37.9,38.0,36.5,34.9,90,87,82,30.58,30.47,12,4,12,0.00
2012-2-12,44.2,41.1,36.1,41.3,37.6,32.6,94,88,76,30.60,30.47,15,4,15,0.00
2012-2-13,50.4,44.2,36.3,41.3,36.8,32.4,90,76,61,30.48,30.27,20,8,20,0.00
2012-2-14,50.7,45.6,41.2,42.4,37.8,34.5,82,74,66,30.40,30.22,27,11,27,0.00
2012-2-15,53.7,48.8,43.7,42.8,40.6,38.4,82,74,61,30.32,30.26,23,11,23,0.00
2012-2-16,53.1,47.3,43.1,48.5,42.3,37.9,88,83,70,30.29,30.05,30,16,30,0.00
2012-2-17,50.9,46.3,41.7,46.8,41.0,36.8,90,81,71,30.10,29.59,44,18,44,0.01
2012-2-18,48.8,41.8,33.3,42.7,34.7,26.5,85,76,57,29.90,29.40,39,20,39,0.00
2012-2-19,41.4,36.2,31.3,33.4,27.3,24.3,85,70,51,30.31,29.90,20,8,20,0.00
2012-2-20,50.3,45.8,39.0,46.9,40.9,32.9,91,83,76,30.26,29.92,41,22,41,0.00
2012-2-21,54.5,51.6,49.2,49.3,47.0,44.8,91,84,78,30.06,29.88,33,19,33,0.00
2012-2-22,53.3,51.4,49.4,48.6,46.9,45.1,88,85,83,29.89,29.74,31,18,31,0.00
2012-2-23,55.3,52.7,49.6,50.9,48.6,44.9,92,86,78,29.97,29.85,41,21,41,0.00
2012-2-24,51.8,47.6,43.1,46.2,39.9,35.4,88,75,58,30.27,29.96,37,18,37,0.00
2012-2-25,46.2,44.0,42.8,41.3,39.2,37.9,86,83,80,30.27,30.19,26,15,26,0.00
2012-2-26,50.5,48.2,46.8,46.0,43.9,42.6,89,85,80,30.27,30.04,33,16,33,0.00
2012-2-27,55.1,52.0,49.3,52.5,48.3,45.1,92,87,77,30.05,29.92,31,18,31,0.01
2012-2-28,54.9,53.5,50.5,52.3,50.4,48.0,93,89,85,30.14,29.97,29,14,29,0.00
2012-2-29,53.2,50.3,48.7,48.2,44.6,42.2,92,81,75,30.13,30.06,26,12,26,0.00
2012-3-1,55.4,49.9,44.5,48.4,44.6,41.7,94,82,75,30.33,30.07,23,9,23,0.00
2012-3-2,49.4,44.9,41.9,46.3,43.0,41.0,97,93,79,30.33,30.08,12,3,12,0.00
2012-3-3,52.6,45.7,41.5,44.7,40.3,37.0,90,82,65,30.08,29.78,23,8,23,0.02
2012-3-4,46.5,40.2,36.1,38.3,34.8,30.2,93,81,62,30.16,29.95,17,6,17,0.10
2012-3-5,49.8,41.1,34.5,37.0,33.0,29.9,89,74,51,30.33,30.16,10,4,10,0.00
2012-3-6,49.3,42.3,33.2,44.7,36.0,29.5,90,79,67,30.32,29.63,36,11,36,0.00
2012-3-7,53.2,43.7,36.8,48.1,37.7,31.8,89,80,60,29.99,29.49,45,18,45,0.03
2012-3-8,51.1,45.8,37.9,45.5,40.4,33.5,87,81,74,30.24,29.98,33,17,33,0.00
2012-3-9,57.7,52.1,47.3,50.5,46.0,39.7,85,80,73,30.35,30.11,41,20,41,0.00
2012-3-10,50.7,49.1,47.3,44.4,43.0,39.8,88,79,72,30.57,30.32,29,16,29,0.00
2012-3-11,53.0,49.4,46.9,47.3,44.9,42.3,90,84,79,30.57,30.52,27,16,27,0.00
2012-3-12,50.7,48.3,46.6,44.1,43.0,41.3,86,82,76,30.54,30.50,22,10,22,0.00
2012-3-13,50.3,47.1,44.7,42.0,40.6,39.3,84,78,70,30.54,30.47,16,7,16,0.00
2012-3-14,49.5,46.8,43.8,42.0,40.6,39.2,84,79,72,30.47,30.26,20,9,20,0.00
2012-3-15,50.2,45.6,39.9,43.1,40.1,36.3,90,81,73,30.26,30.01,20,8,20,0.00
2012-3-16,54.6,49.1,44.2,49.2,45.1,41.6,93,86,80,30.01,29.74,26,10,26,0.16
2012-3-17,52.2,45.5,40.1,41.6,37.2,32.7,90,74,52,29.92,29.75,17,8,17,0.14
2012-3-18,50.6,43.1,34.6,39.3,34.7,30.3,89,73,46,30.24,29.92,20,7,20,0.00
2012-3-19,52.0,47.1,41.4,46.8,41.1,35.7,88,80,70,30.29,30.21,36,17,36,0.00
2012-3-20,57.1,52.7,50.2,49.0,46.5,43.1,89,80,62,30.42,30.23,29,17,29,0.00
2012-3-21,58.3,51.5,44.7,44.0,41.6,38.3,79,69,54,30.53,30.41,22,11,22,0.00
2012-3-22,49.4,45.3,39.3,43.8,40.7,35.9,92,84,73,30.54,30.44,15,5,15,0.00
2012-3-23,46.4,45.1,44.4,43.9,43.0,42.4,94,92,91,30.37,30.33,13,6,13,0.00
2012-3-24,47.7,44.4,42.1,46.3,43.2,41.3,97,95,93,30.46,30.36,10,4,10,0.00
2012-3-25,63.7,50.0,38.9,51.8,45.2,38.1,98,85,61,30.59,30.45,7,2,7,0.01
2012-3-26,67.7,55.6,46.4,47.0,45.0,40.9,87,70,45,30.62,30.58,5,1,5,0.00
2012-3-27,70.7,57.0,42.8,46.2,39.6,35.6,76,54,31,30.63,30.56,14,4,14,0.00
2012-3-28,67.9,57.5,47.1,46.8,40.5,36.7,76,55,33,30.56,30.40,21,8,21,0.00
2012-3-29,63.9,54.3,47.5,47.5,42.5,36.3,84,65,52,30.41,30.29,25,13,25,0.00
2012-3-30,62.3,53.1,45.6,47.4,44.1,40.5,87,72,56,30.33,30.11,25,13,25,0.00
2012-3-31,48.2,45.4,39.0,41.0,36.7,32.3,85,72,58,30.25,30.13,18,7,18,0.00
2012-4-1,59.6,47.3,36.7,44.5,38.6,32.3,88,73,54,30.25,29.96,17,6,17,0.00
2012-4-2,48.3,44.4,40.1,44.3,41.8,38.8,96,90,83,29.97,29.63,23,7,23,0.02
2012-4-3,45.5,39.3,34.5,42.2,34.9,27.0,97,85,58,30.00,29.52,50,25,50,0.22
2012-4-4,42.8,39.8,36.7,35.9,31.8,27.1,91,73,62,30.30,30.00,36,17,36,0.00
2012-4-5,51.3,41.6,30.5,40.9,33.4,25.1,87,73,58,30.30,30.10,18,8,18,0.00
2012-4-6,52.1,47.8,43.8,49.0,45.5,41.6,95,92,87,29.92,29.81,22,8,22,0.05
2012-4-7,54.4,46.7,40.6,47.1,42.3,38.5,95,85,73,29.98,29.84,17,7,17,0.01
2012-4-8,54.4,49.6,44.5,47.6,44.5,40.1,88,82,71,29.87,29.47,26,13,26,0.00
2012-4-9,51.0,46.5,43.2,43.0,40.2,37.3,86,79,68,29.47,28.88,21,10,21,0.01
2012-4-10,52.1,43.1,35.3,43.0,39.4,33.7,95,87,61,29.19,28.80,17,7,17,1.41
2012-4-11,53.4,45.5,41.8,42.9,40.2,35.4,94,83,52,29.58,29.19,16,4,16,0.16
2012-4-12,50.9,44.5,41.1,41.9,37.6,27.9,93,77,44,29.74,29.58,21,5,21,0.09
2012-4-13,43.5,43.5,43.5,35.8,35.8,35.8,74,74,74,29.74,29.74,8,6,8,0.00
2012-4-14,42.9,40.4,38.3,36.7,34.3,30.9,88,79,69,30.10,30.00,16,4,16,0.02
2012-4-15,48.6,42.3,34.7,34.0,29.4,24.9,76,61,41,30.31,30.10,13,5,13,0.00
2012-4-16,48.2,43.1,35.1,37.2,32.5,28.7,80,66,48,30.31,29.74,23,6,23,0.00
2012-4-17,52.6,44.8,40.2,41.2,37.5,34.7,86,76,53,29.74,29.13,29,10,29,0.04
2012-4-18,48.4,44.6,39.7,43.5,39.7,35.9,90,83,75,29.21,29.09,26,10,26,0.12
2012-4-19,47.5,45.5,43.8,44.2,42.4,40.2,93,89,84,29.27,29.21,22,11,22,0.13
2012-4-20,49.9,45.6,42.7,44.2,42.0,40.2,92,88,74,29.31,29.23,13,4,13,0.09
2012-4-21,45.6,45.2,44.7,43.1,42.6,42.2,92,91,89,29.31,29.30,5,2,5,0.27
2012-4-23,47.7,45.4,44.1,41.7,40.8,40.1,88,84,77,29.54,29.48,16,7,16,0.01
2012-4-24,48.0,44.9,42.8,43.2,40.3,38.4,91,84,75,29.54,29.49,20,7,20,0.23
2012-4-25,46.8,44.9,41.4,44.0,42.2,39.0,94,90,85,29.49,29.27,38,18,38,0.21
2012-4-26,48.4,45.8,44.0,43.8,41.9,36.7,96,86,76,29.70,29.26,32,18,32,0.10
2012-4-27,52.5,44.2,38.6,39.4,34.5,31.1,89,70,47,30.20,29.70,24,8,24,0.05
2012-4-28,47.2,43.4,39.9,38.3,35.3,31.5,85,73,57,30.35,30.19,25,12,25,0.00
2012-4-29,45.0,42.6,40.0,39.7,36.5,33.7,90,79,68,30.29,29.98,32,18,32,0.12
2012-4-30,47.3,45.1,42.3,45.1,43.4,39.4,96,94,88,30.32,29.97,34,17,34,0.11
2012-5-1,50.0,46.7,44.5,45.9,43.5,41.5,93,89,81,30.36,30.30,26,15,26,0.00
2012-5-2,47.6,45.2,43.4,42.8,41.7,40.6,92,87,82,30.36,30.23,20,11,20,0.00
2012-5-3,48.1,44.9,42.2,43.4,41.0,38.7,92,86,81,30.23,29.86,20,8,20,0.00
2012-5-4,48.4,45.0,39.4,43.3,35.5,25.7,94,70,48,29.95,29.82,25,10,25,0.04
2012-5-5,52.2,45.5,34.6,31.2,26.9,21.1,75,49,31,29.97,29.91,12,4,12,0.00
2012-5-6,48.6,43.4,39.9,38.5,35.5,30.2,82,74,59,29.97,29.94,14,6,14,0.02
2012-5-13,51.7,48.7,46.1,45.6,43.2,38.3,87,81,72,29.96,29.67,42,26,42,0.00
2012-5-14,54.0,47.9,41.7,44.2,40.0,37.3,89,74,58,29.80,29.68,40,17,40,0.09
2012-5-15,54.3,46.7,41.6,39.8,35.7,29.5,89,67,41,30.19,29.80,24,6,24,0.06
2012-5-16,52.1,45.9,37.2,42.0,35.8,32.5,86,69,49,30.21,30.15,21,8,21,0.00
2012-5-17,48.7,46.2,45.0,44.3,42.7,40.1,93,88,79,30.15,29.93,17,7,17,0.20
2012-5-18,45.0,43.5,42.2,43.1,41.0,39.0,94,91,82,30.00,29.90,30,18,30,0.21
2012-5-19,48.2,45.6,43.0,42.0,40.0,38.0,88,81,73,30.03,29.98,22,13,22,0.00
2012-5-24,58.0,54.8,53.1,53.8,52.2,51.4,94,91,85,30.43,30.40,10,6,10,0.00
2012-5-25,62.3,54.9,51.2,54.0,51.9,50.4,97,90,72,30.45,30.37,20,10,20,0.00
2012-5-26,65.7,57.7,51.7,53.1,50.3,47.1,93,78,53,30.41,30.28,22,10,22,0.00
2012-5-27,61.9,56.8,50.4,53.9,51.6,48.2,96,83,67,30.29,30.13,15,7,15,0.00
2012-5-28,69.0,58.0,52.1,55.4,51.7,49.4,91,80,59,30.13,30.05,28,9,28,0.00
2012-5-29,56.7,52.2,49.4,52.3,50.0,47.4,96,92,84,30.10,30.00,17,8,17,0.00
2012-5-30,54.3,52.1,50.0,52.6,50.8,49.2,97,95,93,30.05,30.02,17,6,17,0.06
2012-5-31,53.0,52.6,52.1,51.7,51.4,51.0,96,95,95,30.03,29.98,7,3,7,0.02
2012-6-1,58.5,55.1,51.2,49.5,46.6,42.9,82,73,57,30.12,30.06,16,8,16,0.05
2012-6-2,52.1,49.7,47.2,45.3,40.2,36.1,80,70,57,30.11,29.98,23,13,23,0.00
2012-6-3,52.5,49.0,43.8,42.2,40.3,37.5,84,72,59,30.02,29.92,25,13,25,0.00
2012-6-4,60.9,53.0,45.1,42.5,39.1,33.8,85,61,38,30.06,29.99,15,6,15,0.00
2012-6-5,58.7,52.8,46.1,49.8,43.5,38.6,92,71,52,29.99,29.63,21,6,21,0.04
2012-6-6,53.4,52.0,51.2,52.0,50.3,49.1,95,94,92,29.63,29.43,15,8,15,0.06
2012-6-10,51.1,50.9,50.8,47.1,46.9,46.6,86,86,85,29.79,29.78,17,9,17,0.16
2012-6-11,54.6,51.1,49.0,47.9,45.3,42.8,94,81,68,29.85,29.77,17,9,17,0.09
2012-6-12,58.5,52.0,47.9,45.3,43.1,41.0,86,72,56,29.98,29.85,14,5,14,0.00
2012-6-13,57.9,52.9,48.1,45.7,42.3,37.2,85,68,51,30.09,29.98,21,7,21,0.00
2012-6-14,58.4,52.8,48.0,48.7,44.3,40.1,80,73,58,30.10,30.01,30,12,30,0.00
2012-6-15,50.1,49.0,47.9,48.0,46.2,43.6,96,90,80,30.01,29.62,34,19,34,0.35
2012-6-16,51.3,49.9,48.8,50.5,49.0,47.7,97,97,96,29.62,29.51,33,20,33,0.80
2012-6-17,50.4,48.8,48.0,49.8,48.3,47.5,98,98,97,29.88,29.62,15,3,15,0.42
2012-6-18,57.7,55.6,54.1,46.1,45.5,45.1,72,69,63,30.00,29.98,5,2,5,0.00
2012-6-19,65.1,58.2,52.1,50.3,45.4,38.3,81,64,38,30.07,29.96,22,7,22,0.00
2012-6-20,60.0,55.0,47.5,52.8,49.3,44.1,90,81,63,30.10,30.02,22,8,22,0.00
2012-6-21,55.3,53.7,52.5,54.2,52.0,49.6,97,94,89,30.02,29.51,28,14,28,0.47
2012-6-22,58.9,55.1,53.7,58.1,53.7,51.4,98,95,87,29.57,29.40,20,7,20,0.85
2012-6-23,60.2,55.5,52.6,52.9,50.6,47.6,94,84,70,29.80,29.56,34,17,34,0.04
2012-6-24,65.7,58.0,52.3,54.7,51.1,48.8,93,78,61,29.86,29.69,20,10,20,0.05
2012-6-25,58.1,52.4,50.2,50.1,48.1,47.1,89,85,72,29.99,29.86,17,8,17,0.00
2012-6-28,71.1,63.5,58.3,62.3,56.6,52.3,85,79,69,29.40,29.36,22,11,22,0.00
2012-6-29,58.3,57.6,57.3,53.3,52.8,52.0,85,84,80,29.36,29.32,23,11,23,0.00
2012-6-30,65.7,59.3,52.5,55.2,50.6,47.2,88,73,57,29.60,29.47,26,11,26,0.04
2012-7-1,64.3,56.7,52.0,54.6,50.4,47.0,95,80,61,29.82,29.58,22,8,22,0.04
2012-7-2,59.5,55.4,52.3,58.1,53.6,48.3,97,94,80,29.83,29.79,17,6,17,0.33
2012-7-3,64.2,59.4,55.7,59.1,56.8,54.9,97,91,81,29.82,29.76,9,3,9,0.01
2012-7-4,65.8,59.3,56.3,61.1,57.5,55.5,98,94,82,29.83,29.70,18,6,18,0.96
2012-7-5,61.0,57.9,56.2,58.8,56.9,55.6,98,96,91,29.94,29.82,20,9,20,0.00
2012-7-6,59.6,57.2,55.8,57.6,55.9,54.9,98,95,90,29.94,29.88,25,11,25,0.09
2012-7-21,63.9,61.0,58.0,51.5,48.5,43.1,75,64,52,30.21,30.19,20,8,20,0.00
2012-7-22,68.8,63.3,57.0,60.2,55.7,47.6,85,76,67,30.19,29.89,34,18,34,0.01
2012-7-23,65.1,61.4,57.5,60.8,58.9,55.8,96,92,83,30.01,29.90,28,9,28,0.60
2012-7-24,70.3,61.9,56.5,58.4,55.6,52.4,94,81,61,30.07,29.99,16,5,16,0.00
2012-7-25,66.7,60.8,54.0,56.6,53.7,51.1,91,78,59,30.17,30.06,16,6,16,0.03
2012-7-26,66.1,60.1,54.6,59.8,54.3,49.0,93,82,70,30.18,29.98,16,6,16,0.01
2012-7-27,63.0,58.1,52.8,54.0,49.2,46.9,87,73,58,29.98,29.76,31,14,31,0.01
2012-7-28,53.5,53.1,52.6,48.5,48.2,47.9,84,83,82,29.77,29.71,22,14,22,0.00
2012-8-10,64.3,61.3,58.3,56.8,55.6,53.4,85,81,75,30.33,30.32,14,6,14,0.00
2012-8-11,67.4,60.8,53.0,55.7,53.6,50.2,91,78,60,30.32,30.07,20,7,20,0.00
2012-8-12,68.7,61.5,56.2,59.2,55.5,51.7,89,81,67,30.07,29.85,21,8,21,0.00
2012-8-13,70.4,63.9,58.8,61.6,59.1,55.7,95,85,70,29.85,29.71,16,5,16,0.10
2012-8-14,72.4,64.8,58.7,61.7,58.4,56.1,95,81,60,29.89,29.74,15,3,15,0.01
2012-8-15,66.3,60.8,56.6,61.2,58.3,54.8,97,92,83,29.88,29.52,26,9,26,0.21
2012-8-16,70.9,63.5,57.6,58.0,55.1,53.3,92,75,59,29.88,29.60,23,8,23,0.02
2012-8-17,60.4,59.1,58.9,57.0,56.6,56.1,93,91,87,29.88,29.83,9,4,9,0.09
2012-8-26,54.2,54.1,54.0,48.7,48.5,48.4,82,81,81,29.97,29.97,12,5,12,0.14
2012-8-27,62.7,56.1,53.8,57.0,52.5,49.1,90,88,84,29.80,29.50,14,7,14,0.09
2012-8-29,62.8,55.0,52.1,53.6,50.8,48.8,94,86,61,29.75,29.62,24,5,24,1.06
2012-8-30,59.6,55.8,49.6,48.9,43.0,39.2,95,64,47,30.34,29.76,8,3,8,1.08
2012-8-31,58.5,55.2,46.1,55.8,51.9,41.2,93,89,75,30.37,30.18,20,10,20,1.15
2012-9-1,66.2,60.6,58.5,58.2,55.9,53.8,91,85,65,30.18,29.94,32,15,32,0.00
2012-9-2,67.0,61.2,56.4,58.4,54.1,51.9,92,78,63,30.23,29.98,23,12,23,0.00
2012-9-3,72.3,63.4,58.1,60.5,56.3,52.8,89,78,61,30.23,30.00,30,14,30,0.00
2012-9-4,64.3,59.8,54.6,61.3,50.1,45.2,94,71,52,30.23,30.00,31,16,31,0.00
2012-9-5,64.0,57.2,52.1,51.1,48.4,46.6,83,73,56,30.38,30.22,20,10,20,0.00
2012-9-6,62.4,57.4,51.0,57.6,51.6,46.0,92,81,67,30.36,30.01,40,15,40,0.01
2012-9-7,59.8,59.6,59.4,57.5,57.3,57.1,92,92,92,30.07,30.06,15,10,15,0.00
2012-9-27,54.6,52.5,48.1,48.1,47.3,45.7,96,83,72,29.70,29.62,24,12,24,0.01
2012-9-28,56.1,52.1,47.3,49.8,46.9,42.1,92,83,65,29.66,29.57,33,14,33,0.06
2012-9-29,56.4,52.1,48.0,48.0,44.7,41.6,85,76,59,29.94,29.66,30,17,30,0.07
2012-9-30,60.5,57.0,52.9,54.9,52.9,46.6,92,86,67,29.78,29.61,31,19,31,0.23
2012-10-1,58.4,54.3,50.9,48.2,46.4,43.4,87,75,62,29.64,29.51,25,14,25,0.23
2012-10-4,48.0,47.6,47.3,43.5,43.2,42.7,85,85,84,29.56,29.54,14,4,14,0.00
2012-10-5,54.4,48.4,43.4,45.1,43.2,41.1,94,83,66,29.72,29.47,14,6,14,0.07
2012-10-6,57.5,49.2,41.9,46.7,42.8,38.3,93,80,58,30.07,29.71,15,5,15,0.00
2012-10-7,42.3,40.4,38.0,38.7,37.4,35.3,91,89,87,30.12,30.06,8,4,8,0.00
2012-10-20,55.9,53.1,48.9,46.9,46.0,45.0,88,77,71,30.03,29.92,7,3,7,0.00
2012-10-21,54.6,50.0,44.9,49.6,47.1,43.8,97,90,81,30.25,30.05,12,2,12,0.00
2012-10-22,50.5,46.3,41.2,47.7,44.6,39.6,97,94,89,30.38,30.25,17,6,17,0.01
2012-10-23,50.9,50.6,48.9,50.4,50.0,48.1,98,98,96,30.42,30.37,12,7,12,0.02
2012-10-24,51.0,49.2,47.2,49.6,48.1,45.6,98,96,85,30.39,30.28,15,4,15,0.02
2012-10-25,51.4,46.0,41.1,46.2,40.0,33.8,96,80,67,30.26,30.19,24,11,24,0.04
2012-10-26,43.7,37.7,36.3,32.6,30.1,27.2,81,74,53,30.26,30.10,22,10,22,0.04
2012-10-27,46.2,37.3,34.3,41.6,30.5,28.8,91,76,55,30.24,29.92,17,6,17,0.02
2012-10-28,49.9,48.2,44.1,45.9,44.9,42.1,94,88,84,29.89,29.54,24,13,24,0.02
2012-10-29,47.4,43.6,40.5,42.7,40.1,36.0,97,88,70,29.78,29.65,10,2,10,0.02
2012-10-30,48.5,46.5,40.9,44.8,43.3,37.0,91,88,81,29.65,29.03,22,13,22,0.02
2012-10-31,48.8,44.7,40.1,43.7,42.4,37.3,94,92,80,29.00,28.79,22,4,22,0.45
2012-11-1,43.9,39.1,35.3,38.4,34.6,33.8,96,84,79,28.79,28.72,10,4,10,0.50
2012-11-2,46.4,43.4,39.2,41.1,37.9,34.3,90,81,72,29.20,28.71,30,15,30,0.56
2012-11-3,44.9,40.6,36.0,37.2,34.5,33.6,92,79,66,29.29,29.20,16,5,16,0.57
2012-11-4,44.9,40.0,35.6,40.8,37.0,33.1,95,89,79,29.62,29.28,10,2,10,0.00
2012-11-5,48.0,40.7,35.7,40.7,36.5,34.3,96,85,71,29.98,29.62,14,5,14,0.00
2012-11-6,53.3,48.3,38.7,49.2,44.4,34.3,92,86,81,30.03,29.86,32,17,32,0.02
2012-11-7,49.5,48.8,48.3,45.4,44.3,43.3,88,84,80,30.03,29.79,31,18,31,0.00
2012-11-8,51.6,47.9,46.9,44.6,42.9,41.8,88,83,73,29.90,29.71,24,13,24,0.00
2012-11-9,50.3,46.0,44.4,46.2,40.6,39.2,87,81,79,29.69,29.33,23,11,23,0.01
2012-11-10,49.4,43.8,41.0,42.0,38.5,36.6,91,82,69,29.47,29.27,20,10,20,0.02
2012-11-11,46.0,45.0,40.0,40.7,40.0,37.3,92,83,79,29.86,29.49,13,7,13,0.02